Terminal Aerodrome Forecast
Issued by NWS

Home | Current Version | Previous Version | Text Only | Print | Product List | Glossary On
Versions: 1 2 3 4 5 6 7 8 9 10 11 12 13 14 15 16 17 18 19 20 21 22 23 24 25 26 27 28 29 30 31 32 33 34
571
FTPA31 PHFO 231304 AAA
TAFHKO
TAF AMD
PHKO 231304Z 2313/2412 06006KT P6SM VCSH FEW030 BKN050
     FM232000 22010KT P6SM BKN050
     FM240300 VRB06G12KT P6SM SCT025 BKN045
     FM240700 09007KT P6SM SCT025 BKN040=

USA.gov is the U.S. government's official web portal to all federal, state and local government web resources and services.